sensor_id;sensor_type;location;lat;lon;timestamp;P1;durP1;ratioP1;P2;durP2;ratioP2
65667;SDS011;52369;52.542;13.232;2023-09-18T00:02:24;11.65;;;7.80;;
65667;SDS011;52369;52.542;13.232;2023-09-18T00:04:50;10.30;;;7.68;;
65667;SDS011;52369;52.542;13.232;2023-09-18T00:07:17;10.18;;;8.02;;
65667;SDS011;52369;52.542;13.232;2023-09-18T00:09:43;9.98;;;7.20;;
65667;SDS011;52369;52.542;13.232;2023-09-18T00:12:09;11.20;;;7.60;;
65667;SDS011;52369;52.542;13.232;2023-09-18T00:14:35;9.55;;;7.28;;
65667;SDS011;52369;52.542;13.232;2023-09-18T00:17:01;11.02;;;7.65;;
65667;SDS011;52369;52.542;13.232;2023-09-18T00:19:28;11.02;;;7.50;;
65667;SDS011;52369;52.542;13.232;2023-09-18T00:21:54;9.90;;;7.28;;
65667;SDS011;52369;52.542;13.232;2023-09-18T00:24:21;12.52;;;7.65;;
65667;SDS011;52369;52.542;13.232;2023-09-18T00:26:47;10.18;;;7.15;;
65667;SDS011;52369;52.542;13.232;2023-09-18T00:29:14;11.40;;;7.57;;
65667;SDS011;52369;52.542;13.232;2023-09-18T00:31:40;10.15;;;7.00;;
65667;SDS011;52369;52.542;13.232;2023-09-18T00:34:06;10.52;;;7.10;;
65667;SDS011;52369;52.542;13.232;2023-09-18T00:36:32;10.18;;;7.70;;
65667;SDS011;52369;52.542;13.232;2023-09-18T00:38:58;9.95;;;6.75;;
65667;SDS011;52369;52.542;13.232;2023-09-18T00:41:24;10.90;;;7.32;;
65667;SDS011;52369;52.542;13.232;2023-09-18T00:43:50;10.50;;;7.10;;
65667;SDS011;52369;52.542;13.232;2023-09-18T00:46:16;11.55;;;7.03;;
65667;SDS011;52369;52.542;13.232;2023-09-18T00:48:42;9.55;;;7.18;;
65667;SDS011;52369;52.542;13.232;2023-09-18T00:51:08;10.95;;;7.50;;
65667;SDS011;52369;52.542;13.232;2023-09-18T00:53:35;9.88;;;7.10;;
65667;SDS011;52369;52.542;13.232;2023-09-18T00:56:03;9.30;;;6.93;;
65667;SDS011;52369;52.542;13.232;2023-09-18T00:58:29;9.38;;;6.95;;
65667;SDS011;52369;52.542;13.232;2023-09-18T01:00:55;10.73;;;7.75;;
65667;SDS011;52369;52.542;13.232;2023-09-18T01:03:21;9.90;;;7.13;;
65667;SDS011;52369;52.542;13.232;2023-09-18T01:05:50;8.93;;;6.78;;
65667;SDS011;52369;52.542;13.232;2023-09-18T01:08:16;9.75;;;6.78;;
65667;SDS011;52369;52.542;13.232;2023-09-18T01:11:19;12.18;;;7.50;;
65667;SDS011;52369;52.542;13.232;2023-09-18T01:13:35;8.83;;;6.67;;
65667;SDS011;52369;52.542;13.232;2023-09-18T01:16:15;10.35;;;7.20;;
65667;SDS011;52369;52.542;13.232;2023-09-18T01:18:49;10.02;;;7.10;;
65667;SDS011;52369;52.542;13.232;2023-09-18T01:21:15;9.88;;;7.10;;
65667;SDS011;52369;52.542;13.232;2023-09-18T01:23:41;11.05;;;7.25;;
65667;SDS011;52369;52.542;13.232;2023-09-18T01:26:08;9.65;;;6.93;;
65667;SDS011;52369;52.542;13.232;2023-09-18T01:28:34;9.95;;;6.93;;
65667;SDS011;52369;52.542;13.232;2023-09-18T01:31:00;10.63;;;7.00;;
65667;SDS011;52369;52.542;13.232;2023-09-18T01:33:26;10.48;;;7.40;;
65667;SDS011;52369;52.542;13.232;2023-09-18T01:35:53;10.68;;;7.20;;
65667;SDS011;52369;52.542;13.232;2023-09-18T01:38:20;10.18;;;7.22;;
65667;SDS011;52369;52.542;13.232;2023-09-18T01:40:47;11.00;;;7.00;;
65667;SDS011;52369;52.542;13.232;2023-09-18T01:43:13;9.77;;;6.60;;
65667;SDS011;52369;52.542;13.232;2023-09-18T01:45:39;9.57;;;6.95;;
65667;SDS011;52369;52.542;13.232;2023-09-18T01:48:05;10.52;;;7.03;;
65667;SDS011;52369;52.542;13.232;2023-09-18T01:50:32;10.07;;;7.20;;
65667;SDS011;52369;52.542;13.232;2023-09-18T01:53:01;10.10;;;6.80;;
65667;SDS011;52369;52.542;13.232;2023-09-18T01:55:27;11.77;;;7.32;;
65667;SDS011;52369;52.542;13.232;2023-09-18T01:57:54;9.10;;;6.70;;
65667;SDS011;52369;52.542;13.232;2023-09-18T02:00:20;10.68;;;7.35;;
65667;SDS011;52369;52.542;13.232;2023-09-18T02:02:46;11.05;;;6.88;;
65667;SDS011;52369;52.542;13.232;2023-09-18T02:05:12;9.90;;;7.00;;
65667;SDS011;52369;52.542;13.232;2023-09-18T02:07:39;10.85;;;6.88;;
65667;SDS011;52369;52.542;13.232;2023-09-18T02:10:05;11.00;;;6.90;;
65667;SDS011;52369;52.542;13.232;2023-09-18T02:12:31;10.45;;;7.38;;
65667;SDS011;52369;52.542;13.232;2023-09-18T02:14:57;12.07;;;7.57;;
65667;SDS011;52369;52.542;13.232;2023-09-18T02:17:26;12.45;;;7.80;;
65667;SDS011;52369;52.542;13.232;2023-09-18T02:19:52;11.65;;;7.45;;
65667;SDS011;52369;52.542;13.232;2023-09-18T02:22:18;10.70;;;7.15;;
65667;SDS011;52369;52.542;13.232;2023-09-18T02:24:44;10.73;;;7.13;;
65667;SDS011;52369;52.542;13.232;2023-09-18T02:27:10;12.07;;;7.43;;
65667;SDS011;52369;52.542;13.232;2023-09-18T02:29:37;10.00;;;7.13;;
65667;SDS011;52369;52.542;13.232;2023-09-18T02:32:03;13.05;;;7.63;;
65667;SDS011;52369;52.542;13.232;2023-09-18T02:34:29;11.32;;;6.97;;
65667;SDS011;52369;52.542;13.232;2023-09-18T02:36:55;9.95;;;7.05;;
65667;SDS011;52369;52.542;13.232;2023-09-18T02:39:21;11.20;;;7.80;;
65667;SDS011;52369;52.542;13.232;2023-09-18T02:41:47;9.93;;;7.25;;
65667;SDS011;52369;52.542;13.232;2023-09-18T02:44:13;12.10;;;7.32;;
65667;SDS011;52369;52.542;13.232;2023-09-18T02:46:40;10.25;;;7.07;;
65667;SDS011;52369;52.542;13.232;2023-09-18T02:49:06;10.63;;;7.18;;
65667;SDS011;52369;52.542;13.232;2023-09-18T02:51:32;9.98;;;7.53;;
65667;SDS011;52369;52.542;13.232;2023-09-18T02:53:58;12.32;;;7.35;;
65667;SDS011;52369;52.542;13.232;2023-09-18T02:56:24;10.25;;;7.15;;
65667;SDS011;52369;52.542;13.232;2023-09-18T02:58:50;10.30;;;7.18;;
65667;SDS011;52369;52.542;13.232;2023-09-18T03:01:16;11.68;;;7.47;;
65667;SDS011;52369;52.542;13.232;2023-09-18T03:03:42;10.82;;;6.93;;
65667;SDS011;52369;52.542;13.232;2023-09-18T03:06:08;9.40;;;6.68;;
65667;SDS011;52369;52.542;13.232;2023-09-18T03:08:34;10.75;;;6.97;;
65667;SDS011;52369;52.542;13.232;2023-09-18T03:11:00;9.90;;;7.10;;
65667;SDS011;52369;52.542;13.232;2023-09-18T03:13:27;9.95;;;7.22;;
65667;SDS011;52369;52.542;13.232;2023-09-18T03:15:53;10.35;;;7.35;;
65667;SDS011;52369;52.542;13.232;2023-09-18T03:18:21;11.20;;;7.65;;
65667;SDS011;52369;52.542;13.232;2023-09-18T03:20:47;10.52;;;7.10;;
65667;SDS011;52369;52.542;13.232;2023-09-18T03:23:13;11.32;;;7.45;;
65667;SDS011;52369;52.542;13.232;2023-09-18T03:25:39;12.40;;;7.43;;
65667;SDS011;52369;52.542;13.232;2023-09-18T03:28:05;10.63;;;7.10;;
65667;SDS011;52369;52.542;13.232;2023-09-18T03:30:31;11.68;;;7.28;;
65667;SDS011;52369;52.542;13.232;2023-09-18T03:32:57;9.98;;;7.18;;
65667;SDS011;52369;52.542;13.232;2023-09-18T03:35:23;11.30;;;7.70;;
65667;SDS011;52369;52.542;13.232;2023-09-18T03:37:50;11.60;;;7.82;;
65667;SDS011;52369;52.542;13.232;2023-09-18T03:40:17;10.02;;;6.97;;
65667;SDS011;52369;52.542;13.232;2023-09-18T03:42:44;11.20;;;7.88;;
65667;SDS011;52369;52.542;13.232;2023-09-18T03:45:10;11.05;;;7.63;;
65667;SDS011;52369;52.542;13.232;2023-09-18T03:47:37;11.75;;;7.97;;
65667;SDS011;52369;52.542;13.232;2023-09-18T03:50:04;11.50;;;7.78;;
65667;SDS011;52369;52.542;13.232;2023-09-18T03:52:30;11.68;;;7.50;;
65667;SDS011;52369;52.542;13.232;2023-09-18T03:54:57;12.40;;;7.50;;
65667;SDS011;52369;52.542;13.232;2023-09-18T03:57:23;12.30;;;6.90;;
65667;SDS011;52369;52.542;13.232;2023-09-18T03:59:49;10.63;;;7.15;;
65667;SDS011;52369;52.542;13.232;2023-09-18T04:02:15;11.65;;;7.47;;
65667;SDS011;52369;52.542;13.232;2023-09-18T04:04:41;49.65;;;25.95;;
65667;SDS011;52369;52.542;13.232;2023-09-18T04:07:07;93.22;;;45.75;;
65667;SDS011;52369;52.542;13.232;2023-09-18T04:09:33;101.85;;;49.22;;
65667;SDS011;52369;52.542;13.232;2023-09-18T04:12:00;53.95;;;30.27;;
65667;SDS011;52369;52.542;13.232;2023-09-18T04:14:26;17.25;;;11.15;;
65667;SDS011;52369;52.542;13.232;2023-09-18T04:16:52;13.48;;;8.18;;
65667;SDS011;52369;52.542;13.232;2023-09-18T04:19:18;11.35;;;6.90;;
65667;SDS011;52369;52.542;13.232;2023-09-18T04:21:44;13.18;;;7.40;;
65667;SDS011;52369;52.542;13.232;2023-09-18T04:24:10;11.98;;;7.43;;
65667;SDS011;52369;52.542;13.232;2023-09-18T04:26:36;11.32;;;7.43;;
65667;SDS011;52369;52.542;13.232;2023-09-18T04:29:03;10.40;;;7.65;;
65667;SDS011;52369;52.542;13.232;2023-09-18T04:31:29;11.75;;;8.02;;
65667;SDS011;52369;52.542;13.232;2023-09-18T04:33:55;12.82;;;8.30;;
65667;SDS011;52369;52.542;13.232;2023-09-18T04:36:21;12.38;;;7.80;;
65667;SDS011;52369;52.542;13.232;2023-09-18T04:38:47;12.90;;;7.60;;
65667;SDS011;52369;52.542;13.232;2023-09-18T04:41:13;23.05;;;13.50;;
65667;SDS011;52369;52.542;13.232;2023-09-18T04:43:40;13.55;;;8.38;;
65667;SDS011;52369;52.542;13.232;2023-09-18T04:46:09;14.02;;;8.50;;
65667;SDS011;52369;52.542;13.232;2023-09-18T04:48:35;16.17;;;10.48;;
65667;SDS011;52369;52.542;13.232;2023-09-18T04:51:01;14.88;;;8.32;;
65667;SDS011;52369;52.542;13.232;2023-09-18T04:53:28;18.38;;;8.88;;
65667;SDS011;52369;52.542;13.232;2023-09-18T04:55:54;12.85;;;8.73;;
65667;SDS011;52369;52.542;13.232;2023-09-18T04:58:20;12.23;;;8.25;;
65667;SDS011;52369;52.542;13.232;2023-09-18T05:00:47;14.02;;;8.18;;
65667;SDS011;52369;52.542;13.232;2023-09-18T05:03:13;15.27;;;8.73;;
65667;SDS011;52369;52.542;13.232;2023-09-18T05:05:39;10.95;;;7.72;;
65667;SDS011;52369;52.542;13.232;2023-09-18T05:08:06;12.27;;;8.23;;
65667;SDS011;52369;52.542;13.232;2023-09-18T05:10:35;11.23;;;7.70;;
65667;SDS011;52369;52.542;13.232;2023-09-18T05:13:01;12.07;;;7.82;;
65667;SDS011;52369;52.542;13.232;2023-09-18T05:15:28;11.05;;;7.28;;
65667;SDS011;52369;52.542;13.232;2023-09-18T05:17:58;14.15;;;7.88;;
65667;SDS011;52369;52.542;13.232;2023-09-18T05:20:25;11.07;;;7.78;;
65667;SDS011;52369;52.542;13.232;2023-09-18T05:22:51;10.65;;;7.50;;
65667;SDS011;52369;52.542;13.232;2023-09-18T05:25:24;11.93;;;8.23;;
65667;SDS011;52369;52.542;13.232;2023-09-18T05:27:51;12.20;;;8.02;;
65667;SDS011;52369;52.542;13.232;2023-09-18T05:30:24;11.90;;;7.93;;
65667;SDS011;52369;52.542;13.232;2023-09-18T05:32:53;13.33;;;8.03;;
65667;SDS011;52369;52.542;13.232;2023-09-18T05:35:19;13.20;;;7.47;;
65667;SDS011;52369;52.542;13.232;2023-09-18T05:37:46;11.27;;;7.28;;
65667;SDS011;52369;52.542;13.232;2023-09-18T05:40:12;12.18;;;7.55;;
65667;SDS011;52369;52.542;13.232;2023-09-18T05:42:39;12.45;;;7.60;;
65667;SDS011;52369;52.542;13.232;2023-09-18T05:45:08;10.63;;;7.60;;
65667;SDS011;52369;52.542;13.232;2023-09-18T05:47:35;10.02;;;6.93;;
65667;SDS011;52369;52.542;13.232;2023-09-18T05:50:02;12.85;;;7.88;;
65667;SDS011;52369;52.542;13.232;2023-09-18T05:52:32;12.52;;;8.43;;
65667;SDS011;52369;52.542;13.232;2023-09-18T05:54:58;10.77;;;7.05;;
65667;SDS011;52369;52.542;13.232;2023-09-18T05:57:24;10.68;;;7.35;;
65667;SDS011;52369;52.542;13.232;2023-09-18T05:59:52;12.35;;;7.65;;
65667;SDS011;52369;52.542;13.232;2023-09-18T06:02:18;11.70;;;7.50;;
65667;SDS011;52369;52.542;13.232;2023-09-18T06:04:45;11.65;;;7.50;;
65667;SDS011;52369;52.542;13.232;2023-09-18T06:07:12;11.63;;;7.78;;
65667;SDS011;52369;52.542;13.232;2023-09-18T06:09:38;10.57;;;7.03;;
65667;SDS011;52369;52.542;13.232;2023-09-18T06:12:04;11.25;;;7.35;;
65667;SDS011;52369;52.542;13.232;2023-09-18T06:14:31;12.75;;;7.47;;
65667;SDS011;52369;52.542;13.232;2023-09-18T06:16:59;11.55;;;7.80;;
65667;SDS011;52369;52.542;13.232;2023-09-18T06:19:25;11.32;;;6.85;;
65667;SDS011;52369;52.542;13.232;2023-09-18T06:21:51;12.60;;;8.00;;
65667;SDS011;52369;52.542;13.232;2023-09-18T06:24:17;11.70;;;7.90;;
65667;SDS011;52369;52.542;13.232;2023-09-18T06:26:43;13.55;;;7.43;;
65667;SDS011;52369;52.542;13.232;2023-09-18T06:29:09;10.52;;;7.15;;
65667;SDS011;52369;52.542;13.232;2023-09-18T06:31:36;9.38;;;6.75;;
65667;SDS011;52369;52.542;13.232;2023-09-18T06:34:02;14.50;;;7.47;;
65667;SDS011;52369;52.542;13.232;2023-09-18T06:36:28;10.80;;;7.28;;
65667;SDS011;52369;52.542;13.232;2023-09-18T06:38:54;11.20;;;7.28;;
65667;SDS011;52369;52.542;13.232;2023-09-18T06:41:20;13.65;;;7.60;;
65667;SDS011;52369;52.542;13.232;2023-09-18T06:43:46;11.48;;;7.25;;
65667;SDS011;52369;52.542;13.232;2023-09-18T06:46:12;10.70;;;7.25;;
65667;SDS011;52369;52.542;13.232;2023-09-18T06:48:38;11.52;;;7.13;;
65667;SDS011;52369;52.542;13.232;2023-09-18T06:51:04;11.98;;;8.13;;
65667;SDS011;52369;52.542;13.232;2023-09-18T06:53:31;10.88;;;7.05;;
65667;SDS011;52369;52.542;13.232;2023-09-18T06:55:57;10.02;;;7.00;;
65667;SDS011;52369;52.542;13.232;2023-09-18T06:58:23;10.55;;;7.25;;
65667;SDS011;52369;52.542;13.232;2023-09-18T07:00:49;12.25;;;7.00;;
65667;SDS011;52369;52.542;13.232;2023-09-18T07:03:15;11.35;;;7.20;;
65667;SDS011;52369;52.542;13.232;2023-09-18T07:05:43;11.73;;;7.55;;
65667;SDS011;52369;52.542;13.232;2023-09-18T07:08:09;10.25;;;6.85;;
65667;SDS011;52369;52.542;13.232;2023-09-18T07:10:37;10.45;;;7.53;;
65667;SDS011;52369;52.542;13.232;2023-09-18T07:13:03;13.30;;;6.78;;
65667;SDS011;52369;52.542;13.232;2023-09-18T07:15:29;9.55;;;6.63;;
65667;SDS011;52369;52.542;13.232;2023-09-18T07:17:55;10.65;;;7.25;;
65667;SDS011;52369;52.542;13.232;2023-09-18T07:20:21;9.82;;;6.90;;
65667;SDS011;52369;52.542;13.232;2023-09-18T07:22:49;10.52;;;6.72;;
65667;SDS011;52369;52.542;13.232;2023-09-18T07:25:15;10.23;;;6.57;;
65667;SDS011;52369;52.542;13.232;2023-09-18T07:27:42;9.40;;;6.35;;
65667;SDS011;52369;52.542;13.232;2023-09-18T07:30:11;10.70;;;6.50;;
65667;SDS011;52369;52.542;13.232;2023-09-18T07:32:39;12.40;;;6.78;;
65667;SDS011;52369;52.542;13.232;2023-09-18T07:35:09;10.45;;;6.72;;
65667;SDS011;52369;52.542;13.232;2023-09-18T07:37:35;13.68;;;7.22;;
65667;SDS011;52369;52.542;13.232;2023-09-18T07:40:05;13.07;;;7.60;;
65667;SDS011;52369;52.542;13.232;2023-09-18T07:42:31;16.83;;;9.25;;
65667;SDS011;52369;52.542;13.232;2023-09-18T07:44:58;12.10;;;5.95;;
65667;SDS011;52369;52.542;13.232;2023-09-18T07:47:24;10.90;;;6.55;;
65667;SDS011;52369;52.542;13.232;2023-09-18T07:49:50;13.38;;;7.47;;
65667;SDS011;52369;52.542;13.232;2023-09-18T07:52:17;10.60;;;6.68;;
65667;SDS011;52369;52.542;13.232;2023-09-18T07:54:43;9.60;;;6.00;;
65667;SDS011;52369;52.542;13.232;2023-09-18T07:57:09;10.40;;;6.15;;
65667;SDS011;52369;52.542;13.232;2023-09-18T07:59:36;11.35;;;6.47;;
65667;SDS011;52369;52.542;13.232;2023-09-18T08:02:02;10.52;;;6.70;;
65667;SDS011;52369;52.542;13.232;2023-09-18T08:04:31;10.40;;;5.70;;
65667;SDS011;52369;52.542;13.232;2023-09-18T08:06:57;11.15;;;5.90;;
65667;SDS011;52369;52.542;13.232;2023-09-18T08:09:23;11.68;;;6.78;;
65667;SDS011;52369;52.542;13.232;2023-09-18T08:11:49;9.65;;;5.88;;
65667;SDS011;52369;52.542;13.232;2023-09-18T08:14:15;9.65;;;6.03;;
65667;SDS011;52369;52.542;13.232;2023-09-18T08:16:42;10.13;;;5.53;;
65667;SDS011;52369;52.542;13.232;2023-09-18T08:19:08;8.98;;;5.80;;
65667;SDS011;52369;52.542;13.232;2023-09-18T08:21:34;11.32;;;5.75;;
65667;SDS011;52369;52.542;13.232;2023-09-18T08:24:00;9.02;;;5.50;;
65667;SDS011;52369;52.542;13.232;2023-09-18T08:26:27;9.90;;;5.82;;
65667;SDS011;52369;52.542;13.232;2023-09-18T08:28:53;9.15;;;5.65;;
65667;SDS011;52369;52.542;13.232;2023-09-18T08:31:20;9.30;;;5.93;;
65667;SDS011;52369;52.542;13.232;2023-09-18T08:33:46;9.52;;;5.80;;
65667;SDS011;52369;52.542;13.232;2023-09-18T08:36:12;9.05;;;5.40;;
65667;SDS011;52369;52.542;13.232;2023-09-18T08:38:40;9.07;;;5.53;;
65667;SDS011;52369;52.542;13.232;2023-09-18T08:41:08;11.68;;;5.57;;
65667;SDS011;52369;52.542;13.232;2023-09-18T08:43:34;14.70;;;6.20;;
65667;SDS011;52369;52.542;13.232;2023-09-18T08:46:01;7.88;;;5.15;;
65667;SDS011;52369;52.542;13.232;2023-09-18T08:48:29;10.27;;;6.10;;
65667;SDS011;52369;52.542;13.232;2023-09-18T08:51:05;10.25;;;6.00;;
65667;SDS011;52369;52.542;13.232;2023-09-18T08:53:32;11.07;;;5.93;;
65667;SDS011;52369;52.542;13.232;2023-09-18T08:55:59;7.75;;;5.25;;
65667;SDS011;52369;52.542;13.232;2023-09-18T08:58:27;10.15;;;5.43;;
65667;SDS011;52369;52.542;13.232;2023-09-18T09:00:54;8.43;;;5.72;;
65667;SDS011;52369;52.542;13.232;2023-09-18T09:03:20;13.43;;;6.47;;
65667;SDS011;52369;52.542;13.232;2023-09-18T09:05:46;8.20;;;5.55;;
65667;SDS011;52369;52.542;13.232;2023-09-18T09:08:12;8.35;;;5.40;;
65667;SDS011;52369;52.542;13.232;2023-09-18T09:10:39;9.05;;;5.78;;
65667;SDS011;52369;52.542;13.232;2023-09-18T09:13:06;15.40;;;5.53;;
65667;SDS011;52369;52.542;13.232;2023-09-18T09:15:33;10.52;;;5.95;;
65667;SDS011;52369;52.542;13.232;2023-09-18T09:18:06;7.32;;;5.28;;
65667;SDS011;52369;52.542;13.232;2023-09-18T09:20:34;8.52;;;5.20;;
65667;SDS011;52369;52.542;13.232;2023-09-18T09:23:01;9.40;;;5.47;;
65667;SDS011;52369;52.542;13.232;2023-09-18T09:25:28;9.70;;;5.68;;
65667;SDS011;52369;52.542;13.232;2023-09-18T09:27:57;9.75;;;5.20;;
65667;SDS011;52369;52.542;13.232;2023-09-18T09:30:24;8.02;;;5.57;;
65667;SDS011;52369;52.542;13.232;2023-09-18T09:32:51;7.60;;;5.28;;
65667;SDS011;52369;52.542;13.232;2023-09-18T09:37:46;9.38;;;5.05;;
65667;SDS011;52369;52.542;13.232;2023-09-18T09:40:13;8.00;;;5.25;;
65667;SDS011;52369;52.542;13.232;2023-09-18T09:42:40;10.55;;;5.53;;
65667;SDS011;52369;52.542;13.232;2023-09-18T09:45:13;7.28;;;4.93;;
65667;SDS011;52369;52.542;13.232;2023-09-18T09:47:41;6.95;;;5.28;;
65667;SDS011;52369;52.542;13.232;2023-09-18T09:50:14;8.32;;;4.85;;
65667;SDS011;52369;52.542;13.232;2023-09-18T09:52:43;11.38;;;5.68;;
65667;SDS011;52369;52.542;13.232;2023-09-18T09:57:48;8.98;;;5.10;;
65667;SDS011;52369;52.542;13.232;2023-09-18T10:00:15;11.20;;;5.03;;
65667;SDS011;52369;52.542;13.232;2023-09-18T10:02:58;9.38;;;5.20;;
65667;SDS011;52369;52.542;13.232;2023-09-18T10:05:26;8.93;;;5.53;;
65667;SDS011;52369;52.542;13.232;2023-09-18T10:07:53;7.60;;;5.10;;
65667;SDS011;52369;52.542;13.232;2023-09-18T10:10:20;9.77;;;5.10;;
65667;SDS011;52369;52.542;13.232;2023-09-18T10:12:46;9.05;;;5.32;;
65667;SDS011;52369;52.542;13.232;2023-09-18T10:15:14;9.07;;;5.50;;
65667;SDS011;52369;52.542;13.232;2023-09-18T10:17:42;13.23;;;5.80;;
65667;SDS011;52369;52.542;13.232;2023-09-18T10:20:12;9.82;;;5.30;;
65667;SDS011;52369;52.542;13.232;2023-09-18T10:22:52;11.25;;;5.45;;
65667;SDS011;52369;52.542;13.232;2023-09-18T10:25:23;8.90;;;4.80;;
65667;SDS011;52369;52.542;13.232;2023-09-18T10:27:51;9.55;;;5.22;;
65667;SDS011;52369;52.542;13.232;2023-09-18T10:30:18;6.93;;;5.07;;
65667;SDS011;52369;52.542;13.232;2023-09-18T10:32:45;7.00;;;4.78;;
65667;SDS011;52369;52.542;13.232;2023-09-18T10:35:13;9.98;;;4.72;;
65667;SDS011;52369;52.542;13.232;2023-09-18T10:37:41;6.15;;;4.63;;
65667;SDS011;52369;52.542;13.232;2023-09-18T10:40:10;6.20;;;4.63;;
65667;SDS011;52369;52.542;13.232;2023-09-18T10:42:40;9.02;;;5.40;;
65667;SDS011;52369;52.542;13.232;2023-09-18T10:45:06;6.65;;;4.85;;
65667;SDS011;52369;52.542;13.232;2023-09-18T10:47:35;7.72;;;5.18;;
65667;SDS011;52369;52.542;13.232;2023-09-18T10:50:02;7.93;;;4.95;;
65667;SDS011;52369;52.542;13.232;2023-09-18T10:52:29;7.47;;;4.70;;
65667;SDS011;52369;52.542;13.232;2023-09-18T10:54:55;8.43;;;5.50;;
65667;SDS011;52369;52.542;13.232;2023-09-18T10:57:21;9.93;;;5.15;;
65667;SDS011;52369;52.542;13.232;2023-09-18T10:59:47;9.52;;;5.18;;
65667;SDS011;52369;52.542;13.232;2023-09-18T11:02:14;9.27;;;5.13;;
65667;SDS011;52369;52.542;13.232;2023-09-18T11:04:45;10.77;;;5.22;;
65667;SDS011;52369;52.542;13.232;2023-09-18T11:07:21;7.68;;;4.97;;
65667;SDS011;52369;52.542;13.232;2023-09-18T11:09:48;9.43;;;5.55;;
65667;SDS011;52369;52.542;13.232;2023-09-18T11:12:15;7.95;;;5.25;;
65667;SDS011;52369;52.542;13.232;2023-09-18T11:17:29;6.55;;;5.00;;
65667;SDS011;52369;52.542;13.232;2023-09-18T11:22:40;9.30;;;5.60;;
65667;SDS011;52369;52.542;13.232;2023-09-18T11:27:59;9.18;;;5.28;;
65667;SDS011;52369;52.542;13.232;2023-09-18T11:30:25;10.77;;;5.90;;
65667;SDS011;52369;52.542;13.232;2023-09-18T11:32:51;7.55;;;5.25;;
65667;SDS011;52369;52.542;13.232;2023-09-18T11:35:18;8.90;;;5.60;;
65667;SDS011;52369;52.542;13.232;2023-09-18T11:37:45;6.97;;;5.38;;
65667;SDS011;52369;52.542;13.232;2023-09-18T11:40:28;8.10;;;5.75;;
65667;SDS011;52369;52.542;13.232;2023-09-18T11:45:41;9.55;;;5.45;;
65667;SDS011;52369;52.542;13.232;2023-09-18T11:48:07;10.73;;;5.95;;
65667;SDS011;52369;52.542;13.232;2023-09-18T11:50:37;8.10;;;5.35;;
65667;SDS011;52369;52.542;13.232;2023-09-18T11:53:05;9.93;;;5.95;;
65667;SDS011;52369;52.542;13.232;2023-09-18T11:55:31;8.18;;;5.28;;
65667;SDS011;52369;52.542;13.232;2023-09-18T11:57:59;7.88;;;5.63;;
65667;SDS011;52369;52.542;13.232;2023-09-18T12:00:26;9.93;;;5.43;;
65667;SDS011;52369;52.542;13.232;2023-09-18T12:02:55;8.10;;;5.07;;
65667;SDS011;52369;52.542;13.232;2023-09-18T12:05:22;11.02;;;5.60;;
65667;SDS011;52369;52.542;13.232;2023-09-18T12:07:51;7.57;;;5.65;;
65667;SDS011;52369;52.542;13.232;2023-09-18T12:10:19;7.57;;;5.13;;
65667;SDS011;52369;52.542;13.232;2023-09-18T12:12:48;8.05;;;5.15;;
65667;SDS011;52369;52.542;13.232;2023-09-18T12:15:17;7.00;;;4.75;;
65667;SDS011;52369;52.542;13.232;2023-09-18T12:17:45;6.30;;;4.90;;
65667;SDS011;52369;52.542;13.232;2023-09-18T12:20:17;7.70;;;4.80;;
65667;SDS011;52369;52.542;13.232;2023-09-18T12:22:46;6.60;;;4.78;;
65667;SDS011;52369;52.542;13.232;2023-09-18T12:25:13;8.55;;;5.03;;
65667;SDS011;52369;52.542;13.232;2023-09-18T12:27:40;7.80;;;4.88;;
65667;SDS011;52369;52.542;13.232;2023-09-18T12:30:07;8.93;;;4.82;;
65667;SDS011;52369;52.542;13.232;2023-09-18T12:32:35;11.52;;;6.40;;
65667;SDS011;52369;52.542;13.232;2023-09-18T12:35:02;7.43;;;5.07;;
65667;SDS011;52369;52.542;13.232;2023-09-18T12:37:31;7.50;;;4.40;;
65667;SDS011;52369;52.542;13.232;2023-09-18T12:39:57;7.45;;;4.78;;
65667;SDS011;52369;52.542;13.232;2023-09-18T12:42:23;9.88;;;4.65;;
65667;SDS011;52369;52.542;13.232;2023-09-18T12:44:50;6.20;;;4.53;;
65667;SDS011;52369;52.542;13.232;2023-09-18T12:47:16;6.50;;;4.53;;
65667;SDS011;52369;52.542;13.232;2023-09-18T12:49:42;10.05;;;4.85;;
65667;SDS011;52369;52.542;13.232;2023-09-18T12:52:08;8.88;;;4.80;;
65667;SDS011;52369;52.542;13.232;2023-09-18T12:54:44;7.93;;;4.68;;
65667;SDS011;52369;52.542;13.232;2023-09-18T12:57:17;8.15;;;4.32;;
65667;SDS011;52369;52.542;13.232;2023-09-18T12:59:44;7.57;;;4.60;;
65667;SDS011;52369;52.542;13.232;2023-09-18T13:02:12;5.85;;;4.35;;
65667;SDS011;52369;52.542;13.232;2023-09-18T13:04:38;6.35;;;4.55;;
65667;SDS011;52369;52.542;13.232;2023-09-18T13:07:09;7.72;;;4.43;;
65667;SDS011;52369;52.542;13.232;2023-09-18T13:09:36;5.32;;;4.20;;
65667;SDS011;52369;52.542;13.232;2023-09-18T13:12:02;6.63;;;4.80;;
65667;SDS011;52369;52.542;13.232;2023-09-18T13:14:28;9.88;;;4.60;;
65667;SDS011;52369;52.542;13.232;2023-09-18T13:17:01;9.00;;;4.50;;
65667;SDS011;52369;52.542;13.232;2023-09-18T13:19:29;7.30;;;4.40;;
65667;SDS011;52369;52.542;13.232;2023-09-18T13:21:55;10.45;;;6.40;;
65667;SDS011;52369;52.542;13.232;2023-09-18T13:24:24;8.52;;;4.38;;
65667;SDS011;52369;52.542;13.232;2023-09-18T13:26:50;8.35;;;4.32;;
65667;SDS011;52369;52.542;13.232;2023-09-18T13:29:16;10.18;;;4.50;;
65667;SDS011;52369;52.542;13.232;2023-09-18T13:31:42;7.30;;;4.63;;
65667;SDS011;52369;52.542;13.232;2023-09-18T13:34:08;7.57;;;4.60;;
65667;SDS011;52369;52.542;13.232;2023-09-18T13:36:34;5.95;;;4.72;;
65667;SDS011;52369;52.542;13.232;2023-09-18T13:39:00;8.85;;;5.00;;
65667;SDS011;52369;52.542;13.232;2023-09-18T13:41:26;10.18;;;5.40;;
65667;SDS011;52369;52.542;13.232;2023-09-18T13:43:52;12.00;;;5.30;;
65667;SDS011;52369;52.542;13.232;2023-09-18T13:46:20;7.82;;;4.80;;
65667;SDS011;52369;52.542;13.232;2023-09-18T13:48:47;8.35;;;4.57;;
65667;SDS011;52369;52.542;13.232;2023-09-18T13:51:13;7.70;;;5.00;;
65667;SDS011;52369;52.542;13.232;2023-09-18T13:53:39;9.30;;;4.75;;
65667;SDS011;52369;52.542;13.232;2023-09-18T13:56:06;8.70;;;4.82;;
65667;SDS011;52369;52.542;13.232;2023-09-18T13:58:32;7.70;;;4.50;;
65667;SDS011;52369;52.542;13.232;2023-09-18T14:01:00;9.95;;;4.50;;
65667;SDS011;52369;52.542;13.232;2023-09-18T14:03:26;8.23;;;3.80;;
65667;SDS011;52369;52.542;13.232;2023-09-18T14:05:53;7.03;;;4.30;;
65667;SDS011;52369;52.542;13.232;2023-09-18T14:08:19;9.05;;;4.50;;
65667;SDS011;52369;52.542;13.232;2023-09-18T14:10:45;6.93;;;4.53;;
65667;SDS011;52369;52.542;13.232;2023-09-18T14:13:11;9.30;;;4.82;;
65667;SDS011;52369;52.542;13.232;2023-09-18T14:15:37;7.10;;;4.20;;
65667;SDS011;52369;52.542;13.232;2023-09-18T14:18:04;5.35;;;4.10;;
65667;SDS011;52369;52.542;13.232;2023-09-18T14:20:30;6.95;;;4.03;;
65667;SDS011;52369;52.542;13.232;2023-09-18T14:22:56;8.77;;;4.10;;
65667;SDS011;52369;52.542;13.232;2023-09-18T14:25:22;7.28;;;4.38;;
65667;SDS011;52369;52.542;13.232;2023-09-18T14:27:48;10.05;;;4.00;;
65667;SDS011;52369;52.542;13.232;2023-09-18T14:30:14;7.05;;;3.90;;
65667;SDS011;52369;52.542;13.232;2023-09-18T14:32:40;7.45;;;3.90;;
65667;SDS011;52369;52.542;13.232;2023-09-18T14:35:06;5.63;;;3.42;;
65667;SDS011;52369;52.542;13.232;2023-09-18T14:37:33;7.80;;;3.88;;
65667;SDS011;52369;52.542;13.232;2023-09-18T14:39:59;6.55;;;3.55;;
65667;SDS011;52369;52.542;13.232;2023-09-18T14:42:25;7.20;;;3.30;;